KTPH/TPH METAR and TAF weather

Enter ICAO airport designator
Station Type Date Time Source
KTPH METAR 2020/08/05 23:56 UTC NOAA

KTPH 052356Z AUTO 17011KT 10SM CLR 32/M09 A2995 RMK AO2 SLP061 T03221089 10333 20289 56012


Station Type Date Time Source
KTPH Decoded METAR 2020/08/05 23:56 UTC NOAA

TONOPAH AIRPORT, NV, United States (KTPH) 38-02N 117-05W 1652M
Aug 05, 2020 - 07:56 PM EDT / 2020.08.05 2356 UTC
Wind: from the S (170 degrees) at 13 MPH (11 KT):0
Visibility: 10 mile(s):0
Sky conditions: clear
Temperature: 90.0 F (32.2 C)
Dew Point: 16.0 F (-8.9 C)
Relative Humidity: 6%
Pressure (altimeter): 29.95 in. Hg (1014 hPa)
Pressure tendency: 0.04 inches (1.2 hPa) lower than three hours ago
ob: KTPH 052356Z AUTO 17011KT 10SM CLR 32/M09 A2995 RMK AO2 SLP061 T03221089 10333 20289 56012
cycle: 0

Station Type Date Time Source
KTPH TAF 2020/08/05 18:46 UTC NOAA

TAF KTPH 051744Z 0518/0618 19010G20KT P6SM SKC
FM060200 19009KT P6SM SKC
FM060600 01006KT P6SM SKC

Example: see airport list